createdAt,value
2018-07-17T00:02:20.413Z,100726.97
2018-07-17T00:04:47.592Z,100717.56
2018-07-17T00:07:14.630Z,100721.45
2018-07-17T00:09:41.762Z,100712.95
2018-07-17T00:12:08.805Z,100720.01
2018-07-17T00:14:35.860Z,100717.78
2018-07-17T00:17:02.976Z,100713.20
2018-07-17T00:19:29.980Z,100704.63
2018-07-17T00:21:57.077Z,100707.91
2018-07-17T00:24:24.096Z,100706.95
2018-07-17T00:26:51.123Z,100705.80
2018-07-17T00:29:18.350Z,100711.97
2018-07-17T00:31:45.384Z,100705.07
2018-07-17T00:34:12.407Z,100713.81
2018-07-17T00:36:39.461Z,100708.33
2018-07-17T00:39:06.841Z,100709.91
2018-07-17T00:41:33.850Z,100707.69
2018-07-17T00:44:01.113Z,100712.28
2018-07-17T00:46:28.123Z,100707.95
2018-07-17T00:48:55.207Z,100708.23
2018-07-17T00:51:22.299Z,100708.25
2018-07-17T00:53:49.250Z,100713.92
2018-07-17T00:56:16.321Z,100706.99
2018-07-17T00:58:43.335Z,100702.39
2018-07-17T01:01:09.983Z,100700.41
2018-07-17T01:03:42.552Z,100698.56
2018-07-17T01:06:15.324Z,100703.50
2018-07-17T01:08:48.214Z,100700.00
2018-07-17T01:11:20.977Z,100696.05
2018-07-17T01:13:59.068Z,100695.88
2018-07-17T01:16:26.220Z,100691.34
2018-07-17T01:18:53.253Z,100688.05
2018-07-17T01:21:20.284Z,100688.47
2018-07-17T01:23:47.300Z,100690.08
2018-07-17T01:26:14.308Z,100681.97
2018-07-17T01:28:41.329Z,100688.89
2018-07-17T01:31:08.355Z,100684.15
2018-07-17T01:33:35.381Z,100680.41
2018-07-17T01:36:02.426Z,100674.63
2018-07-17T01:38:29.576Z,100674.95
2018-07-17T01:41:03.605Z,100671.97
2018-07-17T01:43:30.706Z,100675.23
2018-07-17T01:45:57.737Z,100674.30
2018-07-17T01:48:24.768Z,100677.87
2018-07-17T01:50:51.817Z,100677.08
2018-07-17T01:53:19.011Z,100672.41
2018-07-17T01:55:46.032Z,100680.34
2018-07-17T01:58:13.109Z,100679.31
2018-07-17T02:00:40.173Z,100679.12
2018-07-17T02:03:07.310Z,100676.59
2018-07-17T02:05:34.327Z,100675.70
2018-07-17T02:08:01.361Z,100672.19
2018-07-17T02:10:28.379Z,100680.31
2018-07-17T02:12:55.418Z,100681.80
2018-07-17T02:15:22.449Z,100683.86
2018-07-17T02:17:49.482Z,100677.85
2018-07-17T02:20:16.489Z,100686.87
2018-07-17T02:22:43.491Z,100674.50
2018-07-17T02:25:10.521Z,100676.51
2018-07-17T02:27:37.787Z,100679.02
2018-07-17T02:30:04.836Z,100680.95
2018-07-17T02:32:31.830Z,100675.17
2018-07-17T02:34:58.876Z,100668.08
2018-07-17T02:37:25.886Z,100670.70
2018-07-17T02:39:52.901Z,100665.81
2018-07-17T02:42:19.952Z,100670.92
2018-07-17T02:44:46.961Z,100676.63
2018-07-17T02:47:13.983Z,100675.92
2018-07-17T02:49:40.988Z,100670.14
2018-07-17T02:52:08.013Z,100669.72
2018-07-17T02:54:35.014Z,100666.39
2018-07-17T02:57:02.333Z,100670.13
2018-07-17T02:59:29.422Z,100665.67
2018-07-17T03:01:56.501Z,100662.41
2018-07-17T03:04:23.542Z,100664.77
2018-07-17T03:06:50.622Z,100665.48
2018-07-17T03:09:17.599Z,100669.07
2018-07-17T03:11:44.620Z,100675.13
2018-07-17T03:14:11.640Z,100669.81
2018-07-17T03:16:38.727Z,100662.82
2018-07-17T03:19:05.774Z,100663.47
2018-07-17T03:21:32.780Z,100658.42
2018-07-17T03:23:59.829Z,100661.44
2018-07-17T03:26:26.824Z,100656.19
2018-07-17T03:28:53.846Z,100660.52
2018-07-17T03:31:20.864Z,100655.41
2018-07-17T03:33:47.873Z,100657.34
2018-07-17T03:36:14.945Z,100659.14
2018-07-17T03:38:41.957Z,100670.84
2018-07-17T03:41:08.981Z,100670.75
2018-07-17T03:43:36.003Z,100670.75
2018-07-17T03:46:03.016Z,100669.30
2018-07-17T03:48:30.641Z,100674.17
2018-07-17T03:50:57.700Z,100667.81
2018-07-17T03:53:24.932Z,100669.91
2018-07-17T03:55:51.978Z,100669.53
2018-07-17T03:58:19.064Z,100673.05
2018-07-17T04:00:46.132Z,100672.49
2018-07-17T04:03:13.242Z,100661.06
2018-07-17T04:05:40.422Z,100668.09
2018-07-17T04:08:07.546Z,100664.81
2018-07-17T04:10:34.621Z,100660.37
2018-07-17T04:13:01.636Z,100658.84
2018-07-17T04:15:28.636Z,100658.22
2018-07-17T04:17:55.662Z,100658.21
2018-07-17T04:20:22.672Z,100651.73
2018-07-17T04:22:49.729Z,100657.98
2018-07-17T04:25:16.844Z,100667.90
2018-07-17T04:27:43.842Z,100671.69
2018-07-17T04:32:52.297Z,100671.70
2018-07-17T04:35:19.313Z,100673.06
2018-07-17T04:37:46.335Z,100673.64
2018-07-17T04:40:13.347Z,100675.69
2018-07-17T04:42:40.730Z,100678.81
2018-07-17T04:45:07.744Z,100685.27
2018-07-17T04:47:34.753Z,100688.56
2018-07-17T04:50:01.843Z,100684.13
2018-07-17T04:52:28.909Z,100688.41
2018-07-17T04:54:55.925Z,100683.12
2018-07-17T04:57:22.985Z,100684.88
2018-07-17T04:59:50.001Z,100685.75
2018-07-17T05:02:17.006Z,100683.55
2018-07-17T05:04:44.057Z,100684.48
2018-07-17T05:07:11.093Z,100685.09
2018-07-17T05:09:38.134Z,100693.66
2018-07-17T05:12:05.187Z,100691.56
2018-07-17T05:14:32.201Z,100694.48
2018-07-17T05:16:59.988Z,100697.42
2018-07-17T05:19:27.012Z,100700.64
2018-07-17T05:21:54.097Z,100698.05
2018-07-17T05:24:21.141Z,100639.85
2018-07-17T05:26:48.195Z,100692.02
2018-07-17T05:29:15.210Z,100693.62
2018-07-17T05:31:42.299Z,100692.31
2018-07-17T05:34:09.309Z,100693.41
2018-07-17T05:36:36.368Z,100693.20
2018-07-17T05:39:05.758Z,100697.20
2018-07-17T05:41:32.878Z,100695.56
2018-07-17T05:43:59.900Z,100694.17
2018-07-17T05:46:26.990Z,100699.10
2018-07-17T05:48:54.021Z,100699.73
2018-07-17T05:51:21.049Z,100706.77
2018-07-17T05:53:48.050Z,100708.47
2018-07-17T05:56:15.063Z,100706.05
2018-07-17T05:58:42.111Z,100708.20
2018-07-17T06:01:09.121Z,100714.15
2018-07-17T06:03:40.275Z,100710.48
2018-07-17T06:06:07.392Z,100705.48
2018-07-17T06:08:34.594Z,100695.95
2018-07-17T06:11:01.753Z,100703.27
2018-07-17T06:13:28.780Z,100704.40
2018-07-17T06:15:55.872Z,100697.75
2018-07-17T06:18:22.895Z,100703.02
2018-07-17T06:20:49.999Z,100707.67
2018-07-17T06:23:17.049Z,100702.81
2018-07-17T06:25:47.670Z,100701.57
2018-07-17T06:28:14.701Z,100714.74
2018-07-17T06:30:41.977Z,100712.84
2018-07-17T06:33:09.091Z,100719.45
2018-07-17T06:35:36.173Z,100723.79
2018-07-17T06:38:03.292Z,100724.81
2018-07-17T06:40:30.329Z,100719.89
2018-07-17T06:42:57.352Z,100726.05
2018-07-17T06:45:24.438Z,100714.66
2018-07-17T06:47:51.473Z,100715.00
2018-07-17T06:50:18.640Z,100711.19
2018-07-17T06:52:45.708Z,100716.49
2018-07-17T06:55:12.737Z,100716.93
2018-07-17T06:57:39.988Z,100721.46
2018-07-17T07:00:07.219Z,100714.70
2018-07-17T07:02:34.318Z,100718.71
2018-07-17T07:05:01.341Z,100725.09
2018-07-17T07:07:28.445Z,100727.34
2018-07-17T07:09:55.453Z,100727.03
2018-07-17T07:12:22.453Z,100732.70
2018-07-17T07:14:49.545Z,100729.53
2018-07-17T07:17:16.606Z,100729.78
2018-07-17T07:19:43.716Z,100738.52
2018-07-17T07:22:10.904Z,100734.70
2018-07-17T07:24:37.902Z,100732.35
2018-07-17T07:27:04.987Z,100733.84
2018-07-17T07:29:32.085Z,100740.22
2018-07-17T07:31:59.123Z,100730.47
2018-07-17T07:34:26.375Z,100728.45
2018-07-17T07:36:53.428Z,100728.13
2018-07-17T07:39:20.470Z,100727.47
2018-07-17T07:41:48.066Z,100725.10
2018-07-17T07:44:15.192Z,100726.94
2018-07-17T07:46:42.210Z,100727.38
2018-07-17T07:49:09.271Z,100722.03
2018-07-17T07:51:36.358Z,100728.55
2018-07-17T07:56:37.248Z,100727.82
2018-07-17T07:59:04.320Z,100721.46
2018-07-17T08:01:31.349Z,100720.76
2018-07-17T08:03:58.445Z,100727.30
2018-07-17T08:06:25.405Z,100718.31
2018-07-17T08:08:52.650Z,100716.70
2018-07-17T08:11:19.697Z,100715.91
2018-07-17T08:13:46.743Z,100717.35
2018-07-17T08:16:13.785Z,100711.48
2018-07-17T08:18:40.917Z,100714.56
2018-07-17T08:21:08.028Z,100716.27
2018-07-17T08:23:35.092Z,100715.50
2018-07-17T08:26:02.122Z,100714.24
2018-07-17T08:28:29.189Z,100714.56
2018-07-17T08:30:56.228Z,100715.95
2018-07-17T08:33:23.251Z,100715.59
2018-07-17T08:35:50.286Z,100713.08
2018-07-17T08:38:17.747Z,100713.55
2018-07-17T08:40:44.780Z,100711.92
2018-07-17T08:43:11.935Z,100703.09
2018-07-17T08:45:38.927Z,100701.41
2018-07-17T08:48:05.966Z,100696.67
2018-07-17T08:50:33.577Z,100697.55
2018-07-17T08:53:00.586Z,100701.94
2018-07-17T08:55:27.599Z,100703.27
2018-07-17T08:57:54.958Z,100695.92
2018-07-17T09:00:22.149Z,100702.41
2018-07-17T09:02:49.236Z,100701.55
2018-07-17T09:05:16.353Z,100702.41
2018-07-17T09:07:43.677Z,100703.31
2018-07-17T09:10:11.029Z,100705.45
2018-07-17T09:12:38.794Z,100702.50
2018-07-17T09:15:06.242Z,100711.05
2018-07-17T09:17:33.551Z,100705.92
2018-07-17T09:20:00.963Z,100715.36
2018-07-17T09:22:28.174Z,100717.08
2018-07-17T09:24:55.452Z,100707.63
2018-07-17T09:27:22.856Z,100711.10
2018-07-17T09:29:50.218Z,100714.97
2018-07-17T09:32:19.887Z,100709.78
2018-07-17T09:34:48.017Z,100714.09
2018-07-17T09:37:15.442Z,100704.22
2018-07-17T09:39:43.181Z,100705.52
2018-07-17T09:42:10.281Z,100703.34
2018-07-17T09:44:37.566Z,100705.90
2018-07-17T09:47:05.288Z,100708.05
2018-07-17T09:49:32.400Z,100705.45
2018-07-17T09:51:59.529Z,100705.85
2018-07-17T09:54:26.673Z,100706.27
2018-07-17T09:56:53.999Z,100711.86
2018-07-17T09:59:21.520Z,100709.71
2018-07-17T10:01:54.949Z,100713.14
2018-07-17T10:04:22.005Z,100713.94
2018-07-17T10:06:49.189Z,100719.03
2018-07-17T10:09:16.683Z,100711.25
2018-07-17T10:11:43.882Z,100717.70
2018-07-17T10:14:11.151Z,100716.83
2018-07-17T10:16:38.540Z,100716.84
2018-07-17T10:19:05.829Z,100710.37
2018-07-17T10:21:33.077Z,100710.27
2018-07-17T10:24:00.421Z,100717.64
2018-07-17T10:26:27.728Z,100714.14
2018-07-17T10:28:54.952Z,100714.11
2018-07-17T10:31:22.373Z,100702.89
2018-07-17T10:33:49.733Z,100714.03
2018-07-17T10:36:16.808Z,100711.41
2018-07-17T10:38:43.940Z,100707.48
2018-07-17T10:41:11.594Z,100703.59
2018-07-17T10:43:38.862Z,100707.55
2018-07-17T10:46:06.389Z,100715.28
2018-07-17T10:48:33.755Z,100711.70
2018-07-17T10:51:00.838Z,100712.21
2018-07-17T10:53:28.453Z,100710.84
2018-07-17T10:55:55.537Z,100710.83
2018-07-17T10:58:22.786Z,100711.28
2018-07-17T11:00:50.133Z,100718.53
2018-07-17T11:03:17.281Z,100707.31
2018-07-17T11:05:44.650Z,100711.58
2018-07-17T11:08:11.999Z,100705.95
2018-07-17T11:10:39.104Z,100706.91
2018-07-17T11:13:06.362Z,100705.88
2018-07-17T11:15:35.438Z,100701.39
2018-07-17T11:18:03.637Z,100709.31
2018-07-17T11:20:32.149Z,100705.00
2018-07-17T11:23:01.638Z,100708.56
2018-07-17T11:25:30.050Z,100706.78
2018-07-17T11:27:58.689Z,100703.78
2018-07-17T11:30:27.032Z,100704.30
2018-07-17T11:32:54.861Z,100696.44
2018-07-17T11:35:22.579Z,100694.59
2018-07-17T11:37:51.660Z,100691.61
2018-07-17T11:40:19.652Z,100691.96
2018-07-17T11:42:47.634Z,100694.21
2018-07-17T11:45:15.676Z,100694.27
2018-07-17T11:47:43.677Z,100686.94
2018-07-17T11:50:11.362Z,100686.94
2018-07-17T11:52:39.739Z,100684.69
2018-07-17T11:55:07.901Z,100680.44
2018-07-17T11:57:35.760Z,100685.45
2018-07-17T12:00:03.714Z,100686.69
2018-07-17T12:02:31.498Z,100687.48
2018-07-17T12:04:59.544Z,100676.30
2018-07-17T12:07:26.605Z,100674.41
2018-07-17T12:09:53.632Z,100671.14
2018-07-17T12:12:20.812Z,100673.15
2018-07-17T12:14:47.820Z,100679.23
2018-07-17T12:17:14.918Z,100677.09
2018-07-17T12:19:41.941Z,100675.19
2018-07-17T12:22:08.971Z,100663.73
2018-07-17T12:24:36.074Z,100672.11
2018-07-17T12:27:03.224Z,100682.28
2018-07-17T12:29:30.397Z,100674.20
2018-07-17T12:31:57.439Z,100672.73
2018-07-17T12:34:24.498Z,100668.77
2018-07-17T12:36:51.578Z,100679.36
2018-07-17T12:39:18.728Z,100672.75
2018-07-17T12:41:45.756Z,100675.81
2018-07-17T12:44:13.266Z,100677.27
2018-07-17T12:46:40.279Z,100677.00
2018-07-17T12:49:07.316Z,100676.72
2018-07-17T12:51:34.552Z,100677.67
2018-07-17T12:54:01.821Z,100676.83
2018-07-17T12:56:28.858Z,100671.45
2018-07-17T12:58:55.900Z,100670.00
2018-07-17T13:01:23.036Z,100673.59
2018-07-17T13:03:50.429Z,100676.95
2018-07-17T13:06:17.503Z,100670.34
2018-07-17T13:08:44.561Z,100670.67
2018-07-17T13:11:11.690Z,100664.13
2018-07-17T13:13:38.810Z,100666.17
2018-07-17T13:16:06.537Z,100664.78
2018-07-17T13:18:33.584Z,100664.78
2018-07-17T13:21:00.706Z,100661.38
2018-07-17T13:23:27.912Z,100664.86
2018-07-17T13:25:54.946Z,100668.37
2018-07-17T13:28:22.109Z,100667.00
2018-07-17T13:30:49.207Z,100659.23
2018-07-17T13:33:16.223Z,100659.33
2018-07-17T13:35:43.564Z,100666.15
2018-07-17T13:38:10.674Z,100657.01
2018-07-17T13:40:37.785Z,100663.59
2018-07-17T13:43:04.949Z,100663.17
2018-07-17T13:45:32.049Z,100663.64
2018-07-17T13:47:59.074Z,100657.03
2018-07-17T13:50:26.120Z,100659.26
2018-07-17T13:52:53.327Z,100658.75
2018-07-17T13:55:20.331Z,100656.55
2018-07-17T13:57:47.361Z,100650.59
2018-07-17T14:00:14.446Z,100650.26
2018-07-17T14:02:41.938Z,100647.33
2018-07-17T14:05:09.501Z,100651.02
2018-07-17T14:07:36.644Z,100654.77
2018-07-17T14:10:03.744Z,100647.02
2018-07-17T14:12:30.855Z,100649.93
2018-07-17T14:14:57.926Z,100647.23
2018-07-17T14:17:24.954Z,100643.42
2018-07-17T14:19:51.996Z,100649.38
2018-07-17T14:22:19.115Z,100647.88
2018-07-17T14:24:47.025Z,100648.32
2018-07-17T14:27:14.096Z,100645.54
2018-07-17T14:29:41.134Z,100644.46
2018-07-17T14:32:08.171Z,100640.27
2018-07-17T14:34:35.277Z,100641.34
2018-07-17T14:37:02.637Z,100649.66
2018-07-17T14:39:29.680Z,100639.71
2018-07-17T14:41:56.789Z,100642.95
2018-07-17T14:44:24.135Z,100641.86
2018-07-17T14:46:51.208Z,100631.33
2018-07-17T14:49:18.277Z,100637.43
2018-07-17T14:51:45.433Z,100633.39
2018-07-17T14:54:12.473Z,100632.00
2018-07-17T14:56:39.519Z,100636.66
2018-07-17T14:59:07.052Z,100633.20
2018-07-17T15:01:34.115Z,100630.13
2018-07-17T15:04:01.231Z,100630.03
2018-07-17T15:06:28.348Z,100625.38
2018-07-17T15:08:55.492Z,100627.11
2018-07-17T15:11:22.708Z,100623.80
2018-07-17T15:13:49.816Z,100619.00
2018-07-17T15:16:16.973Z,100621.93
2018-07-17T15:18:44.080Z,100622.96
2018-07-17T15:21:11.094Z,100622.16
2018-07-17T15:23:38.140Z,100620.07
2018-07-17T15:26:05.203Z,100618.66
2018-07-17T15:28:32.307Z,100621.13
2018-07-17T15:30:59.373Z,100625.81
2018-07-17T15:33:26.478Z,100608.56
2018-07-17T15:35:53.654Z,100617.77
2018-07-17T15:38:20.740Z,100614.88
2018-07-17T15:40:47.953Z,100612.02
2018-07-17T15:43:15.120Z,100607.52
2018-07-17T15:45:42.261Z,100614.44
2018-07-17T15:48:09.444Z,100610.11
2018-07-17T15:50:36.448Z,100611.66
2018-07-17T15:53:03.480Z,100610.92
2018-07-17T15:55:30.617Z,100613.83
2018-07-17T15:57:57.729Z,100619.77
2018-07-17T16:00:24.904Z,100621.37
2018-07-17T16:02:51.924Z,100618.86
2018-07-17T16:05:18.987Z,100612.52
2018-07-17T16:07:46.149Z,100615.98
2018-07-17T16:10:13.268Z,100616.91
2018-07-17T16:12:40.408Z,100622.60
2018-07-17T16:15:07.540Z,100622.48
2018-07-17T16:17:35.053Z,100620.75
2018-07-17T16:20:04.032Z,100610.66
2018-07-17T16:22:31.040Z,100615.34
2018-07-17T16:24:58.094Z,100620.77
2018-07-17T16:27:25.123Z,100612.41
2018-07-17T16:29:52.175Z,100612.52
2018-07-17T16:32:19.228Z,100600.45
2018-07-17T16:34:46.300Z,100607.06
2018-07-17T16:37:13.344Z,100611.66
2018-07-17T16:39:40.479Z,100606.59
2018-07-17T16:42:07.745Z,100611.22
2018-07-17T16:44:34.856Z,100607.38
2018-07-17T16:47:01.883Z,100613.39
2018-07-17T16:49:28.969Z,100612.28
2018-07-17T16:51:56.096Z,100608.53
2018-07-17T16:54:23.108Z,100609.56
2018-07-17T16:56:50.217Z,100602.20
2018-07-17T16:59:17.300Z,100606.66
2018-07-17T17:01:44.367Z,100604.77
2018-07-17T17:04:11.392Z,100611.36
2018-07-17T17:06:38.505Z,100604.52
2018-07-17T17:09:08.083Z,100607.08
2018-07-17T17:11:34.986Z,100607.09
2018-07-17T17:14:02.050Z,100608.26
2018-07-17T17:16:29.168Z,100608.26
2018-07-17T17:18:56.177Z,100602.98
2018-07-17T17:21:23.197Z,100606.59
2018-07-17T17:23:50.280Z,100611.34
2018-07-17T17:26:17.362Z,100613.17
2018-07-17T17:28:44.377Z,100613.55
2018-07-17T17:31:11.438Z,100606.75
2018-07-17T17:33:38.484Z,100609.37
2018-07-17T17:36:05.515Z,100606.00
2018-07-17T17:38:32.544Z,100607.41
2018-07-17T17:40:59.633Z,100602.66
2018-07-17T17:43:26.637Z,100604.42
2018-07-17T17:45:53.699Z,100608.88
2018-07-17T17:48:20.712Z,100616.53
2018-07-17T17:50:47.734Z,100614.98
2018-07-17T17:53:14.754Z,100618.90
2018-07-17T17:55:42.066Z,100617.64
2018-07-17T17:58:09.068Z,100624.18
2018-07-17T18:00:36.092Z,100623.30
2018-07-17T18:03:03.112Z,100628.14
2018-07-17T18:05:30.116Z,100629.91
2018-07-17T18:07:57.166Z,100625.66
2018-07-17T18:10:24.197Z,100623.98
2018-07-17T18:12:51.669Z,100622.76
2018-07-17T18:15:18.678Z,100624.94
2018-07-17T18:17:45.688Z,100625.39
2018-07-17T18:20:12.727Z,100625.02
2018-07-17T18:22:39.796Z,100631.49
2018-07-17T18:25:06.836Z,100631.95
2018-07-17T18:27:33.829Z,100637.13
2018-07-17T18:30:01.113Z,100636.76
2018-07-17T18:32:28.159Z,100635.95
2018-07-17T18:34:55.241Z,100636.83
2018-07-17T18:37:22.276Z,100638.96
2018-07-17T18:39:49.374Z,100638.56
2018-07-17T18:42:16.492Z,100642.84
2018-07-17T18:44:43.432Z,100642.89
2018-07-17T18:47:10.573Z,100648.88
2018-07-17T18:49:37.692Z,100647.63
2018-07-17T18:52:04.756Z,100649.80
2018-07-17T18:54:31.802Z,100651.06
2018-07-17T18:56:59.429Z,100652.79
2018-07-17T18:59:26.552Z,100650.69
2018-07-17T19:01:53.737Z,100660.50
2018-07-17T19:04:20.853Z,100653.23
2018-07-17T19:06:47.881Z,100662.23
2018-07-17T19:09:14.897Z,100663.08
2018-07-17T19:11:41.925Z,100660.08
2018-07-17T19:14:08.926Z,100682.30
2018-07-17T19:16:36.940Z,100690.34
2018-07-17T19:19:04.313Z,100703.41
2018-07-17T19:21:31.362Z,100703.55
2018-07-17T19:23:58.511Z,100712.23
2018-07-17T19:26:25.596Z,100712.65
2018-07-17T19:28:53.281Z,100714.20
2018-07-17T19:31:20.328Z,100712.56
2018-07-17T19:33:47.380Z,100714.95
2018-07-17T19:36:14.421Z,100716.52
2018-07-17T19:38:41.456Z,100730.26
2018-07-17T19:41:08.584Z,100728.98
2018-07-17T19:43:35.807Z,100732.55
2018-07-17T19:46:02.905Z,100746.61
2018-07-17T19:48:30.019Z,100746.14
2018-07-17T19:50:57.062Z,100745.23
2018-07-17T19:53:24.112Z,100751.81
2018-07-17T19:55:51.129Z,100752.17
2018-07-17T19:58:18.168Z,100753.33
2018-07-17T20:00:45.200Z,100759.65
2018-07-17T20:03:12.225Z,100767.05
2018-07-17T20:05:39.297Z,100777.62
2018-07-17T20:08:07.203Z,100771.24
2018-07-17T20:10:34.821Z,100766.64
2018-07-17T20:13:02.930Z,100779.28
2018-07-17T20:15:30.750Z,100774.39
2018-07-17T20:17:58.741Z,100782.48
2018-07-17T20:20:26.614Z,100780.77
2018-07-17T20:22:53.717Z,100774.58
2018-07-17T20:25:20.773Z,100773.23
2018-07-17T20:27:50.742Z,100783.86
2018-07-17T20:30:18.985Z,100782.59
2018-07-17T20:32:46.739Z,100785.94
2018-07-17T20:35:14.959Z,100782.93
2018-07-17T20:37:45.683Z,100794.58
2018-07-17T20:40:18.329Z,100797.13
2018-07-17T20:42:48.838Z,100790.08
2018-07-17T20:45:19.806Z,100792.57
2018-07-17T20:47:48.427Z,100793.70
2018-07-17T20:50:15.712Z,100800.52
2018-07-17T20:52:43.158Z,100798.19
2018-07-17T20:55:10.282Z,100805.95
2018-07-17T20:57:37.672Z,100797.05
2018-07-17T21:00:05.323Z,100801.41
2018-07-17T21:02:32.589Z,100798.23
2018-07-17T21:05:03.012Z,100774.41
2018-07-17T21:07:30.226Z,100801.02
2018-07-17T21:09:57.556Z,100800.28
2018-07-17T21:12:25.641Z,100801.91
2018-07-17T21:14:52.972Z,100809.83
2018-07-17T21:17:20.025Z,100810.45
2018-07-17T21:19:47.174Z,100816.43
2018-07-17T21:22:18.829Z,100814.34
2018-07-17T21:24:53.719Z,100816.35
2018-07-17T21:27:26.513Z,100818.47
2018-07-17T21:29:55.961Z,100819.05
2018-07-17T21:32:28.206Z,100815.72
2018-07-17T21:34:58.435Z,100822.46
2018-07-17T21:37:28.682Z,100821.61
2018-07-17T21:39:59.053Z,100825.43
2018-07-17T21:42:27.982Z,100829.20
2018-07-17T21:44:55.476Z,100834.92
2018-07-17T21:47:22.577Z,100838.47
2018-07-17T21:49:49.668Z,100840.60
2018-07-17T21:52:19.583Z,100841.85
2018-07-17T21:54:49.160Z,100845.23
2018-07-17T21:57:17.052Z,100849.23
2018-07-17T21:59:45.499Z,100852.95
2018-07-17T22:02:14.335Z,100851.99
2018-07-17T22:04:42.441Z,100847.33
2018-07-17T22:07:11.886Z,100850.72
2018-07-17T22:09:42.031Z,100847.77
2018-07-17T22:12:17.098Z,100855.26
2018-07-17T22:14:45.940Z,100855.67
2018-07-17T22:17:14.646Z,100852.50
2018-07-17T22:19:45.234Z,100844.80
2018-07-17T22:22:16.129Z,100856.18
2018-07-17T22:24:46.276Z,100854.52
2018-07-17T22:27:13.450Z,100856.59
2018-07-17T22:29:43.511Z,100854.13
2018-07-17T22:32:13.439Z,100857.92
2018-07-17T22:34:42.647Z,100853.89
2018-07-17T22:37:13.332Z,100858.36
2018-07-17T22:39:44.655Z,100860.77
2018-07-17T22:42:11.964Z,100852.04
2018-07-17T22:44:39.161Z,100852.62
2018-07-17T22:47:06.305Z,100860.39
2018-07-17T22:49:33.710Z,100854.37
2018-07-17T22:52:01.633Z,100850.06
2018-07-17T22:54:29.009Z,100847.98
2018-07-17T22:56:56.152Z,100849.87
2018-07-17T22:59:23.445Z,100843.38
2018-07-17T23:01:51.098Z,100833.80
2018-07-17T23:04:18.535Z,100840.05
2018-07-17T23:06:45.722Z,100837.72
2018-07-17T23:09:12.861Z,100833.28
2018-07-17T23:11:40.302Z,100825.16
2018-07-17T23:14:08.112Z,100829.91
2018-07-17T23:16:35.585Z,100826.34
2018-07-17T23:19:03.291Z,100825.16
2018-07-17T23:21:30.500Z,100826.70
2018-07-17T23:23:57.659Z,100837.27
2018-07-17T23:26:24.889Z,100831.34
2018-07-17T23:28:52.374Z,100839.64
2018-07-17T23:31:19.901Z,100841.36
2018-07-17T23:33:47.518Z,100846.45
2018-07-17T23:36:14.722Z,100851.29
2018-07-17T23:38:42.123Z,100851.29
2018-07-17T23:41:09.341Z,100850.55
2018-07-17T23:43:38.857Z,100848.20
2018-07-17T23:46:08.269Z,100855.22
2018-07-17T23:48:35.488Z,100864.68
2018-07-17T23:51:02.569Z,100859.59
2018-07-17T23:53:29.865Z,100865.28
2018-07-17T23:55:57.232Z,100861.14
2018-07-17T23:58:24.277Z,100869.86
